Time;durP1;ratioP1;P1;durP2;ratioP2;P2;SDS_P1;SDS_P2;PMS_P1;PMS_P2;Temp;Humidity;BMP_temperature;BMP_pressure;BME280_temperature;BME280_humidity;BME280_pressure;Samples;Min_cycle;Max_cycle;Signal;HPM_P1;HPM_P2
2022/10/23 00:00:31;;;;;;;19.30;8.30;;;;;;;12.22;100.00;99713.23;106643;1282;72431;-72
2022/10/23 00:03:33;;;;;;;21.10;8.90;;;;;;;12.21;100.00;99713.52;106637;1283;60336;-72
2022/10/23 00:06:20;;;;;;;22.90;9.10;;;;;;;12.22;100.00;99712.01;106681;1282;60146;-71
2022/10/23 00:09:11;;;;;;;17.90;8.50;;;;;;;12.21;100.00;99716.83;106671;1275;73859;-71
2022/10/23 00:11:57;;;;;;;17.50;7.90;;;;;;;12.21;100.00;99722.08;106673;1282;67448;-73
2022/10/23 00:14:44;;;;;;;21.30;9.00;;;;;;;12.18;100.00;99724.10;106653;1276;72537;-71
2022/10/23 00:17:31;;;;;;;20.00;8.60;;;;;;;12.15;100.00;99722.20;106646;1282;59322;-71
2022/10/23 00:20:18;;;;;;;19.20;8.70;;;;;;;12.14;100.00;99719.98;106676;1282;61186;-71
2022/10/23 00:23:04;;;;;;;21.90;9.50;;;;;;;12.12;100.00;99721.64;106668;1282;72937;-70
2022/10/23 00:25:51;;;;;;;25.60;9.70;;;;;;;12.11;100.00;99722.57;106660;1283;67639;-71
2022/10/23 00:28:37;;;;;;;20.60;9.00;;;;;;;12.09;100.00;99723.30;106680;1282;73718;-70
2022/10/23 00:31:24;;;;;;;18.60;8.70;;;;;;;12.03;100.00;99725.06;106513;1285;60452;-72
2022/10/23 00:34:11;;;;;;;21.60;9.20;;;;;;;11.98;100.00;99727.80;106613;1280;60245;-71
2022/10/23 00:36:57;;;;;;;22.40;9.00;;;;;;;11.93;100.00;99728.91;106592;1278;73879;-72
2022/10/23 00:39:44;;;;;;;23.80;8.60;;;;;;;11.93;100.00;99732.85;106699;1275;67759;-71
2022/10/23 00:42:30;;;;;;;21.40;9.70;;;;;;;11.92;100.00;99728.27;106506;1281;71580;-71
2022/10/23 00:45:26;;;;;;;20.20;9.80;;;;;;;11.91;100.00;99732.08;106648;1282;59273;-71
2022/10/23 00:48:13;;;;;;;22.50;10.10;;;;;;;11.92;100.00;99731.29;106664;1282;59807;-71
2022/10/23 00:50:59;;;;;;;22.50;10.90;;;;;;;11.93;100.00;99737.62;106512;1283;72846;-71
2022/10/23 00:53:49;;;;;;;23.40;9.80;;;;;;;11.92;100.00;99736.45;106662;1276;68716;-71
2022/10/23 00:57:00;;;;;;;27.40;9.90;;;;;;;11.91;100.00;99742.98;106491;1275;72586;-71
2022/10/23 00:59:47;;;;;;;24.80;10.30;;;;;;;11.91;100.00;99746.52;106680;1283;60460;-70
2022/10/23 01:02:34;;;;;;;26.40;11.30;;;;;;;11.91;100.00;99747.42;106612;1279;61150;-71
2022/10/23 01:05:29;;;;;;;21.60;10.30;;;;;;;11.89;100.00;99750.41;106534;1269;73026;-70
2022/10/23 01:08:36;;;;;;;20.80;9.30;;;;;;;11.89;100.00;99747.55;106472;1285;68910;-71
2022/10/23 01:11:40;;;;;;;24.40;10.10;;;;;;;11.90;100.00;99746.10;106649;1282;73429;-70
2022/10/23 01:14:41;;;;;;;20.40;9.90;;;;;;;11.90;100.00;99748.03;106677;1278;57252;-71
2022/10/23 01:17:50;;;;;;;24.60;10.80;;;;;;;11.91;100.00;99749.84;106468;1285;61334;-70
2022/10/23 01:20:54;;;;;;;25.50;10.50;;;;;;;11.94;100.00;99748.23;106433;1282;73994;-71
2022/10/23 01:24:09;;;;;;;20.40;9.00;;;;;;;11.98;100.00;99745.81;106521;1285;68762;-71
2022/10/23 01:27:22;;;;;;;23.00;9.50;;;;;;;12.01;100.00;99748.75;106427;1286;71314;-69
2022/10/23 01:30:15;;;;;;;23.80;9.40;;;;;;;12.04;100.00;99752.57;106659;1275;59408;-71
2022/10/23 01:33:11;;;;;;;22.40;10.00;;;;;;;12.04;100.00;99750.96;106432;1282;60001;-71
2022/10/23 01:36:11;;;;;;;20.80;8.70;;;;;;;12.06;100.00;99748.79;106540;1284;72920;-72
2022/10/23 01:39:11;;;;;;;23.80;9.90;;;;;;;12.08;100.00;99747.77;106549;1284;66288;-70
2022/10/23 01:42:15;;;;;;;24.50;11.00;;;;;;;12.07;100.00;99743.94;106531;1284;72521;-70
2022/10/23 01:45:38;;;;;;;23.40;10.20;;;;;;;12.07;100.00;99747.08;106425;1278;59666;-69
2022/10/23 01:48:29;;;;;;;30.00;10.50;;;;;;;12.08;100.00;99749.52;106539;1282;60093;-70
2022/10/23 01:51:18;;;;;;;29.70;11.60;;;;;;;12.07;100.00;99746.41;106507;1285;73952;-70
2022/10/23 01:54:10;;;;;;;25.80;10.80;;;;;;;12.07;100.00;99747.28;106498;1281;67763;-71
2022/10/23 01:56:58;;;;;;;30.60;11.70;;;;;;;12.09;100.00;99747.67;106435;1287;73534;-72
2022/10/23 01:59:56;;;;;;;29.50;11.80;;;;;;;12.10;100.00;99748.45;106547;1282;60644;-70
2022/10/23 02:02:45;;;;;;;30.40;11.10;;;;;;;12.13;100.00;99749.11;106502;1278;59171;-71
2022/10/23 02:05:33;;;;;;;31.30;12.70;;;;;;;12.15;100.00;99746.28;106520;1283;73146;-70
2022/10/23 02:08:20;;;;;;;27.40;11.30;;;;;;;12.14;100.00;99742.02;106410;1285;68697;-70
2022/10/23 02:11:14;;;;;;;33.60;11.00;;;;;;;12.15;100.00;99741.61;106521;1285;73643;-70
2022/10/23 02:14:19;;;;;;;37.70;12.60;;;;;;;12.14;100.00;99737.27;106517;1286;59351;-71
2022/10/23 02:17:34;;;;;;;31.50;12.80;;;;;;;12.14;100.00;99741.37;106446;1289;60214;-70
2022/10/23 02:20:26;;;;;;;32.60;11.60;;;;;;;12.15;100.00;99745.88;106098;1288;74463;-70
2022/10/23 02:23:32;;;;;;;27.80;11.10;;;;;;;12.16;100.00;99746.17;106076;1288;66842;-71
2022/10/23 02:26:47;;;;;;;34.10;12.50;;;;;;;12.17;100.00;99742.66;105888;1291;73565;-71
2022/10/23 02:29:42;;;;;;;32.40;12.90;;;;;;;12.17;100.00;99742.84;106061;1288;58039;-72
2022/10/23 02:32:29;;;;;;;35.00;12.90;;;;;;;12.20;100.00;99747.05;106054;1288;61230;-72
2022/10/23 02:35:18;;;;;;;30.60;12.20;;;;;;;12.21;100.00;99748.55;106108;1288;72822;-72
2022/10/23 02:38:30;;;;;;;33.40;12.50;;;;;;;12.22;100.00;99749.48;106076;1288;69147;-71
2022/10/23 02:41:22;;;;;;;30.80;11.90;;;;;;;12.23;100.00;99747.61;106094;1288;71426;-71
2022/10/23 02:44:39;;;;;;;36.70;13.70;;;;;;;12.24;100.00;99748.30;106040;1289;59435;-71
2022/10/23 02:48:08;;;;;;;31.00;12.70;;;;;;;12.27;100.00;99754.58;106098;1296;60165;-71
2022/10/23 02:51:16;;;;;;;35.60;13.10;;;;;;;12.31;100.00;99755.35;106055;1289;73920;-71
2022/10/23 02:54:17;;;;;;;34.50;12.60;;;;;;;12.31;100.00;99753.19;106057;1275;68865;-71
2022/10/23 02:57:52;;;;;;;33.20;13.20;;;;;;;12.31;100.00;99748.21;106190;1281;72757;-71
2022/10/23 03:00:48;;;;;;;32.60;12.80;;;;;;;12.31;100.00;99745.65;106479;1283;60481;-71
2022/10/23 03:03:41;;;;;;;37.40;14.20;;;;;;;12.30;100.00;99741.87;106394;1282;59126;-72
2022/10/23 03:06:27;;;;;;;30.40;13.00;;;;;;;12.29;100.00;99746.98;106425;1283;72699;-71
2022/10/23 03:09:15;;;;;;;29.20;11.80;;;;;;;12.26;100.00;99743.80;106570;1282;67717;-72
2022/10/23 03:12:02;;;;;;;29.70;12.20;;;;;;;12.25;100.00;99747.98;106467;1290;72642;-72
2022/10/23 03:14:51;;;;;;;34.10;12.30;;;;;;;12.27;100.00;99747.48;106463;1284;60532;-72
2022/10/23 03:17:38;;;;;;;32.70;13.70;;;;;;;12.28;100.00;99749.20;106524;1281;61670;-71
2022/10/23 03:20:24;;;;;;;30.20;13.80;;;;;;;12.30;100.00;99753.09;106438;1282;73015;-70
2022/10/23 03:23:12;;;;;;;30.10;12.30;;;;;;;12.33;100.00;99754.42;106665;1281;68920;-71
2022/10/23 03:25:59;;;;;;;32.50;13.00;;;;;;;12.36;100.00;99757.13;106640;1282;73481;-71
2022/10/23 03:28:54;;;;;;;29.10;10.90;;;;;;;12.39;100.00;99756.70;106447;1285;60536;-71
2022/10/23 03:31:41;;;;;;;29.00;11.40;;;;;;;12.41;100.00;99752.11;106401;1282;61200;-71
2022/10/23 03:34:31;;;;;;;28.40;11.70;;;;;;;12.41;100.00;99753.13;106687;1282;72808;-71
2022/10/23 03:37:17;;;;;;;29.90;11.40;;;;;;;12.43;100.00;99757.72;106547;1285;66670;-71
2022/10/23 03:40:04;;;;;;;30.20;11.90;;;;;;;12.46;100.00;99752.23;106473;1284;73466;-72
2022/10/23 03:42:52;;;;;;;31.80;12.00;;;;;;;12.45;100.00;99758.46;106493;1283;59409;-71
2022/10/23 03:45:39;;;;;;;27.90;11.60;;;;;;;12.47;100.00;99760.45;106499;1278;61121;-73
2022/10/23 03:48:25;;;;;;;25.90;11.70;;;;;;;12.47;100.00;99762.46;106533;1277;74305;-72
2022/10/23 03:51:16;;;;;;;26.20;10.10;;;;;;;12.49;100.00;99761.16;106498;1285;66587;-73
2022/10/23 03:54:02;;;;;;;29.60;11.30;;;;;;;12.49;100.00;99762.03;106492;1283;71500;-72
2022/10/23 03:56:49;;;;;;;30.80;11.50;;;;;;;12.50;100.00;99763.53;106486;1285;60613;-72
2022/10/23 03:59:42;;;;;;;27.00;11.50;;;;;;;12.54;100.00;99764.30;106640;1275;59263;-70
2022/10/23 04:02:28;;;;;;;26.10;10.70;;;;;;;12.55;100.00;99762.02;106425;1277;73009;-70
2022/10/23 04:05:15;;;;;;;27.20;10.60;;;;;;;12.58;100.00;99763.02;106662;1282;68782;-70
2022/10/23 04:08:06;;;;;;;27.20;11.40;;;;;;;12.60;100.00;99769.96;106599;1283;73511;-71
2022/10/23 04:10:53;;;;;;;30.00;11.10;;;;;;;12.62;100.00;99772.80;106608;1284;60430;-72
2022/10/23 04:13:48;;;;;;;24.90;11.10;;;;;;;12.64;100.00;99774.27;106508;1278;60119;-72
2022/10/23 04:16:34;;;;;;;25.10;10.70;;;;;;;12.62;100.00;99777.09;106648;1282;72772;-71
2022/10/23 04:19:20;;;;;;;25.30;10.00;;;;;;;12.62;100.00;99775.46;106526;1283;67593;-71
2022/10/23 04:22:07;;;;;;;23.40;10.00;;;;;;;12.63;100.00;99774.17;106482;1282;72517;-72
2022/10/23 04:24:54;;;;;;;25.50;10.80;;;;;;;12.62;100.00;99771.90;106462;1285;60448;-73
2022/10/23 04:27:40;;;;;;;22.90;10.80;;;;;;;12.62;100.00;99773.16;106638;1282;59173;-73
2022/10/23 04:30:27;;;;;;;24.40;9.90;;;;;;;12.63;100.00;99774.55;106636;1282;73886;-71
2022/10/23 04:33:14;;;;;;;22.90;9.90;;;;;;;12.62;100.00;99774.96;106497;1282;67714;-72
2022/10/23 04:36:00;;;;;;;27.20;11.00;;;;;;;12.61;100.00;99772.52;106517;1282;72435;-71
2022/10/23 04:38:47;;;;;;;22.50;9.80;;;;;;;12.61;100.00;99772.32;106571;1283;59367;-72
2022/10/23 04:41:33;;;;;;;24.90;10.00;;;;;;;12.59;100.00;99770.89;106497;1283;61181;-72
2022/10/23 04:44:19;;;;;;;23.10;10.90;;;;;;;12.55;100.00;99774.48;106626;1283;71700;-73
2022/10/23 04:47:06;;;;;;;22.80;9.70;;;;;;;12.52;100.00;99772.45;106487;1284;68649;-72
2022/10/23 04:49:57;;;;;;;21.10;9.30;;;;;;;12.49;100.00;99775.23;106426;1290;72698;-72
2022/10/23 04:53:02;;;;;;;20.10;9.50;;;;;;;12.43;100.00;99778.41;106638;1281;58833;-73
2022/10/23 04:56:12;;;;;;;22.30;11.30;;;;;;;12.38;100.00;99779.02;106631;1283;61224;-73
2022/10/23 04:59:08;;;;;;;23.80;10.50;;;;;;;12.36;100.00;99778.36;106514;1279;74117;-72
2022/10/23 05:01:57;;;;;;;23.80;10.50;;;;;;;12.36;100.00;99780.45;106618;1289;68710;-73
2022/10/23 05:04:43;;;;;;;27.40;10.70;;;;;;;12.38;100.00;99779.90;106509;1281;70566;-71
2022/10/23 05:07:48;;;;;;;24.80;10.50;;;;;;;12.41;100.00;99775.16;106632;1289;59235;-72
2022/10/23 05:11:01;;;;;;;23.50;9.90;;;;;;;12.42;100.00;99774.25;106463;1282;61242;-72
2022/10/23 05:13:48;;;;;;;26.70;10.70;;;;;;;12.40;100.00;99772.77;106586;1282;72793;-72
2022/10/23 05:16:51;;;;;;;23.90;11.20;;;;;;;12.40;100.00;99774.77;106485;1289;68053;-73
2022/10/23 05:19:44;;;;;;;25.60;10.30;;;;;;;12.41;100.00;99773.23;106487;1278;73649;-73
2022/10/23 05:22:36;;;;;;;28.90;10.00;;;;;;;12.44;100.00;99780.65;106480;1290;59429;-73
2022/10/23 05:25:24;;;;;;;28.70;11.50;;;;;;;12.45;100.00;99780.85;106401;1285;61325;-73
2022/10/23 05:28:19;;;;;;;27.90;10.70;;;;;;;12.50;100.00;99787.42;106503;1285;74005;-74
2022/10/23 05:31:06;;;;;;;28.40;10.90;;;;;;;12.53;100.00;99786.75;106638;1281;66760;-71
2022/10/23 05:33:55;;;;;;;28.30;11.00;;;;;;;12.57;100.00;99782.30;106385;1286;73540;-73
2022/10/23 05:36:42;;;;;;;28.90;11.30;;;;;;;12.63;100.00;99782.36;106515;1283;57188;-71
2022/10/23 05:39:28;;;;;;;29.10;11.20;;;;;;;12.66;100.00;99785.98;106267;1285;57848;-71
2022/10/23 05:42:15;;;;;;;31.70;11.60;;;;;;;12.68;100.00;99782.36;106163;1284;74397;-72
2022/10/23 05:45:01;;;;;;;31.40;12.40;;;;;;;12.69;100.00;99781.06;106110;1288;68654;-72
2022/10/23 05:48:07;;;;;;;31.00;11.20;;;;;;;12.70;100.00;99782.59;106244;1284;70973;-72
2022/10/23 05:51:27;;;;;;;27.20;10.70;;;;;;;12.64;100.00;99781.01;106228;1293;59663;-73
2022/10/23 05:54:32;;;;;;;34.10;11.10;;;;;;;12.58;100.00;99773.84;106264;1285;61622;-73
2022/10/23 05:57:37;;;;;;;25.60;9.70;;;;;;;12.56;100.00;99771.92;106284;1284;71877;-72
2022/10/23 06:00:28;;;;;;;39.10;12.70;;;;;;;12.50;100.00;99777.94;106156;1287;66586;-73
2022/10/23 06:03:21;;;;;;;22.80;9.20;;;;;;;12.47;100.00;99775.42;106134;1286;73570;-73
2022/10/23 06:06:07;;;;;;;30.00;11.20;;;;;;;12.46;100.00;99777.48;106242;1291;59446;-72
2022/10/23 06:09:05;;;;;;;32.40;13.10;;;;;;;12.45;100.00;99777.90;106154;1294;60168;-72
2022/10/23 06:11:56;;;;;;;35.00;13.20;;;;;;;12.48;100.00;99775.30;106528;1286;73908;-72
2022/10/23 06:14:42;;;;;;;31.30;11.70;;;;;;;12.53;100.00;99774.17;106494;1278;66683;-73
2022/10/23 06:17:29;;;;;;;33.40;11.70;;;;;;;12.57;100.00;99776.06;106465;1282;73537;-72
2022/10/23 06:20:15;;;;;;;32.40;11.90;;;;;;;12.61;100.00;99778.23;106637;1281;60471;-72
2022/10/23 06:23:05;;;;;;;35.70;13.30;;;;;;;12.64;100.00;99778.48;106479;1283;60658;-72
2022/10/23 06:26:18;;;;;;;29.40;13.40;;;;;;;12.70;100.00;99785.77;106453;1281;72880;-73
2022/10/23 06:29:15;;;;;;;28.10;11.00;;;;;;;12.74;100.00;99787.94;106459;1281;67717;-73
2022/10/23 06:32:02;;;;;;;32.00;12.10;;;;;;;12.71;100.00;99785.12;106436;1280;72470;-73
2022/10/23 06:34:48;;;;;;;31.00;12.40;;;;;;;12.71;100.00;99783.96;106492;1281;59377;-72
2022/10/23 06:37:34;;;;;;;29.20;13.20;;;;;;;12.69;100.00;99779.10;106616;1282;60315;-72
2022/10/23 06:40:36;;;;;;;23.10;11.40;;;;;;;12.71;100.00;99781.09;106605;1280;73936;-71
2022/10/23 06:43:25;;;;;;;29.30;12.30;;;;;;;12.70;100.00;99780.92;106484;1281;67671;-72
2022/10/23 06:46:33;;;;;;;24.40;10.80;;;;;;;12.69;100.00;99786.61;106571;1290;73754;-72
2022/10/23 06:49:37;;;;;;;30.00;13.10;;;;;;;12.68;100.00;99790.02;106466;1283;59575;-73
2022/10/23 06:52:24;;;;;;;35.20;17.40;;;;;;;12.70;100.00;99789.52;106545;1277;60108;-73
2022/10/23 06:55:33;;;;;;;33.20;14.80;;;;;;;12.77;100.00;99794.73;106501;1282;72807;-72
2022/10/23 06:58:21;;;;;;;29.10;13.00;;;;;;;12.82;100.00;99798.98;106489;1286;68758;-74
2022/10/23 07:01:17;;;;;;;28.20;15.10;;;;;;;12.84;100.00;99797.34;106486;1289;73741;-71
2022/10/23 07:04:04;;;;;;;30.30;14.20;;;;;;;12.88;100.00;99796.61;106476;1282;59345;-74
2022/10/23 07:06:50;;;;;;;39.10;20.40;;;;;;;12.93;100.00;99792.77;106519;1274;57996;-74
2022/10/23 07:09:39;;;;;;;25.80;12.20;;;;;;;12.98;100.00;99797.98;106517;1284;71359;-73
2022/10/23 07:12:47;;;;;;;27.70;12.50;;;;;;;13.02;100.00;99799.11;106520;1275;67509;-73
2022/10/23 07:15:57;;;;;;;29.60;14.60;;;;;;;13.04;100.00;99803.49;106518;1285;71102;-74
2022/10/23 07:18:45;;;;;;;34.30;17.30;;;;;;;13.07;100.00;99801.08;106504;1286;59370;-75
2022/10/23 07:21:47;;;;;;;26.60;11.50;;;;;;;13.11;100.00;99800.70;106662;1281;59077;-75
2022/10/23 07:24:52;;;;;;;20.90;11.10;;;;;;;13.14;100.00;99798.34;106661;1283;74010;-74
2022/10/23 07:27:42;;;;;;;23.50;11.20;;;;;;;13.18;100.00;99799.21;106349;1284;68199;-75
2022/10/23 07:30:30;;;;;;;23.50;11.50;;;;;;;13.21;100.00;99796.41;106641;1282;72412;-73
2022/10/23 07:33:17;;;;;;;35.20;21.60;;;;;;;13.21;100.00;99792.14;106423;1281;58099;-73
2022/10/23 07:36:22;;;;;;;28.50;16.70;;;;;;;13.22;100.00;99787.98;106497;1282;60363;-73
2022/10/23 07:39:10;;;;;;;23.80;13.20;;;;;;;13.26;100.00;99786.00;106495;1278;73893;-73
2022/10/23 07:42:03;;;;;;;23.20;11.10;;;;;;;13.33;100.00;99790.14;106631;1282;68708;-74
2022/10/23 07:44:49;;;;;;;18.20;9.80;;;;;;;13.40;100.00;99793.67;106470;1285;72493;-73
2022/10/23 07:47:36;;;;;;;19.40;9.50;;;;;;;13.45;100.00;99796.75;106473;1289;59442;-73
2022/10/23 07:50:22;;;;;;;20.20;10.70;;;;;;;13.48;100.00;99797.88;106524;1283;60658;-73
2022/10/23 07:53:29;;;;;;;14.90;8.40;;;;;;;13.48;100.00;99803.55;106489;1281;72937;-72
2022/10/23 07:56:28;;;;;;;17.10;8.80;;;;;;;13.49;100.00;99803.32;106482;1281;67647;-72
2022/10/23 07:59:35;;;;;;;19.50;10.30;;;;;;;13.48;100.00;99798.57;106491;1286;73529;-72
2022/10/23 08:02:27;;;;;;;21.00;10.30;;;;;;;13.51;100.00;99801.04;106577;1289;60421;-72
2022/10/23 08:05:17;;;;;;;19.60;10.50;;;;;;;13.53;100.00;99801.34;106690;1285;60697;-72
2022/10/23 08:08:09;;;;;;;19.80;11.30;;;;;;;13.53;100.00;99802.89;106528;1282;72355;-72
2022/10/23 08:10:56;;;;;;;21.80;11.30;;;;;;;13.56;100.00;99802.80;106493;1282;67794;-73
2022/10/23 08:13:46;;;;;;;17.40;9.90;;;;;;;13.63;100.00;99802.38;106375;1283;201887;-73
2022/10/23 08:16:36;;;;;;;17.60;9.80;;;;;;;13.66;100.00;99803.80;106410;1285;59442;-77
2022/10/23 08:19:23;;;;;;;42.80;28.90;;;;;;;13.75;100.00;99805.63;106504;1285;58747;-74
2022/10/23 08:22:12;;;;;;;23.60;14.60;;;;;;;13.86;100.00;99798.19;106415;1286;73920;-74
2022/10/23 08:24:58;;;;;;;17.30;9.80;;;;;;;13.96;100.00;99800.09;106513;1281;68077;-74
2022/10/23 08:27:45;;;;;;;17.20;9.70;;;;;;;14.01;100.00;99808.89;106530;1283;71310;-75
2022/10/23 08:30:32;;;;;;;17.90;10.30;;;;;;;14.07;100.00;99808.17;106498;1286;59347;-73
2022/10/23 08:33:19;;;;;;;22.00;10.60;;;;;;;14.09;100.00;99810.27;106512;1281;61300;-75
2022/10/23 08:36:19;;;;;;;16.20;9.20;;;;;;;14.10;100.00;99808.53;106492;1285;73941;-69
2022/10/23 08:39:06;;;;;;;15.30;8.90;;;;;;;14.10;100.00;99813.02;106382;1284;68685;-71
2022/10/23 08:41:53;;;;;;;13.60;6.90;;;;;;;14.08;100.00;99817.86;106475;1281;72455;-73
2022/10/23 08:44:53;;;;;;;11.30;6.20;;;;;;;14.02;100.00;99822.70;106618;1279;57912;-76
2022/10/23 08:47:53;;;;;;;12.60;6.00;;;;;;;13.96;100.00;99828.45;106342;1282;60038;-72
2022/10/23 08:51:45;;;;;;;11.70;5.20;;;;;;;13.98;100.00;99830.05;106554;1281;74034;-73
2022/10/23 08:54:57;;;;;;;15.10;6.00;;;;;;;13.94;100.00;99828.98;106626;1283;67754;-74
2022/10/23 08:58:33;;;;;;;12.00;6.30;;;;;;;13.90;100.00;99830.48;106482;1281;74132;-73
2022/10/23 09:01:54;;;;;;;10.80;5.60;;;;;;;13.88;100.00;99830.08;106560;1283;58481;-73
2022/10/23 09:04:44;;;;;;;9.40;4.80;;;;;;;13.88;100.00;99832.78;105960;1295;59976;-72
2022/10/23 09:07:56;;;;;;;7.60;4.00;;;;;;;13.90;100.00;99832.91;105953;1290;73053;-73
2022/10/23 09:11:20;;;;;;;9.60;3.70;;;;;;;14.01;100.00;99836.20;105953;1295;67524;-73
2022/10/23 09:14:58;;;;;;;9.30;4.00;;;;;;;14.17;100.00;99832.69;105934;1299;73673;-72
2022/10/23 09:17:46;;;;;;;9.20;4.70;;;;;;;14.35;99.93;99835.98;105931;1291;58039;-73
2022/10/23 09:20:35;;;;;;;9.20;4.40;;;;;;;14.46;99.53;99836.70;105983;1292;58742;-73
2022/10/23 09:23:23;;;;;;;10.30;5.00;;;;;;;14.60;99.20;99838.89;105878;1281;72921;-73
2022/10/23 09:26:18;;;;;;;11.10;4.90;;;;;;;15.00;97.32;99845.52;105957;1292;68728;-74
2022/10/23 09:29:28;;;;;;;10.50;5.20;;;;;;;15.78;93.44;99842.67;105956;1292;70453;-73
2022/10/23 09:32:14;;;;;;;8.60;4.00;;;;;;;16.59;89.95;99839.12;105880;1290;57246;-73
2022/10/23 09:35:00;;;;;;;9.30;4.30;;;;;;;16.50;87.06;99845.98;105957;1297;60362;-73
2022/10/23 09:37:51;;;;;;;9.40;4.60;;;;;;;16.33;87.44;99844.50;105964;1292;73847;-74
2022/10/23 09:40:42;;;;;;;9.90;4.10;;;;;;;16.33;88.35;99845.61;106144;1285;67753;-73
2022/10/23 09:43:29;;;;;;;8.50;4.00;;;;;;;16.49;86.95;99842.64;106619;1283;72514;-74
2022/10/23 09:46:20;;;;;;;8.20;3.90;;;;;;;16.47;85.52;99844.13;106392;1284;59404;-73
2022/10/23 09:49:28;;;;;;;9.70;3.90;;;;;;;16.35;86.47;99844.62;106659;1275;60281;-74
2022/10/23 09:52:16;;;;;;;8.40;3.60;;;;;;;16.27;85.97;99849.42;106659;1275;73385;-73
2022/10/23 09:55:25;;;;;;;8.90;3.70;;;;;;;16.10;85.31;99850.29;106650;1282;66289;-72
2022/10/23 09:58:31;;;;;;;9.10;3.80;;;;;;;15.99;86.44;99850.90;106373;1283;73537;-72
2022/10/23 10:01:37;;;;;;;7.90;3.50;;;;;;;16.07;86.55;99856.67;106504;1283;59317;-71
2022/10/23 10:04:42;;;;;;;8.80;3.90;;;;;;;16.14;87.03;99859.56;106647;1289;59747;-74
2022/10/23 10:07:29;;;;;;;13.20;4.80;;;;;;;16.09;86.21;99858.70;106647;1284;72661;-72
2022/10/23 10:10:22;;;;;;;10.70;4.40;;;;;;;16.05;86.23;99860.89;106610;1283;68607;-72
2022/10/23 10:13:37;;;;;;;8.10;4.00;;;;;;;16.00;86.35;99857.58;106612;1282;70138;-73
2022/10/23 10:16:45;;;;;;;10.30;4.00;;;;;;;15.90;86.70;99855.04;106646;1275;57444;-74
2022/10/23 10:19:59;;;;;;;9.20;3.80;;;;;;;15.83;86.90;99854.17;106644;1282;60044;-72
2022/10/23 10:23:06;;;;;;;11.00;4.20;;;;;;;15.67;86.39;99860.77;106631;1274;72985;-72
2022/10/23 10:26:00;;;;;;;9.50;4.00;;;;;;;15.49;87.37;99864.73;106502;1282;67797;-72
2022/10/23 10:28:58;;;;;;;10.30;3.80;;;;;;;15.35;88.24;99863.09;106618;1283;71205;-73
2022/10/23 10:32:17;;;;;;;11.10;3.70;;;;;;;15.15;88.62;99866.14;106520;1281;58321;-72
2022/10/23 10:35:44;;;;;;;9.30;4.00;;;;;;;15.01;89.81;99864.57;106150;1280;60132;-73
2022/10/23 10:38:50;;;;;;;8.60;3.60;;;;;;;14.82;90.09;99865.05;106149;1287;72993;-71
2022/10/23 10:42:02;;;;;;;9.20;3.60;;;;;;;14.66;90.90;99871.17;106144;1291;67645;-71
2022/10/23 10:45:16;;;;;;;9.30;3.50;;;;;;;14.58;91.56;99872.46;106101;1277;72457;-75
2022/10/23 10:48:31;;;;;;;8.90;3.90;;;;;;;14.60;91.86;99872.23;106149;1281;59383;-73
2022/10/23 10:52:20;;;;;;;9.80;3.70;;;;;;;14.65;91.75;99872.71;106025;1288;60220;-73
2022/10/23 10:55:09;;;;;;;8.00;3.00;;;;;;;14.72;91.18;99878.86;106025;1288;72924;-72
2022/10/23 10:58:15;;;;;;;10.90;2.40;;;;;;;14.71;90.33;99877.52;106209;1284;67538;-72
2022/10/23 11:01:13;;;;;;;7.20;2.70;;;;;;;14.65;90.37;99878.73;106226;1287;72447;-72
2022/10/23 11:04:39;;;;;;;9.10;3.20;;;;;;;14.54;90.47;99877.13;106244;1287;58933;-72
2022/10/23 11:07:37;;;;;;;9.00;3.10;;;;;;;14.49;91.25;99878.54;106404;1281;60472;-72
2022/10/23 11:10:23;;;;;;;7.20;2.80;;;;;;;14.40;91.72;99882.40;106144;1281;72902;-72
2022/10/23 11:13:36;;;;;;;7.80;2.80;;;;;;;14.33;92.00;99885.97;106510;1286;68376;-73
2022/10/23 11:16:37;;;;;;;9.30;2.70;;;;;;;14.28;92.91;99881.19;106510;1281;73523;-72
2022/10/23 11:19:40;;;;;;;8.30;2.80;;;;;;;14.20;92.64;99876.66;106493;1278;57856;-72
2022/10/23 11:23:05;;;;;;;8.10;2.70;;;;;;;14.10;92.95;99876.16;106645;1275;61197;-72
2022/10/23 11:26:19;;;;;;;8.80;2.90;;;;;;;13.99;93.61;99875.27;106445;1278;72842;-73
2022/10/23 11:29:50;;;;;;;8.80;2.90;;;;;;;14.01;94.01;99877.56;106588;1283;67625;-72
2022/10/23 11:33:13;;;;;;;8.10;3.00;;;;;;;14.05;93.74;99877.50;106470;1281;73650;-72
2022/10/23 11:36:31;;;;;;;7.30;2.90;;;;;;;14.12;93.16;99877.76;106671;1282;57994;-71
2022/10/23 11:39:31;;;;;;;7.70;2.80;;;;;;;14.24;92.90;99881.05;106652;1282;58359;-72
2022/10/23 11:42:39;;;;;;;7.80;3.20;;;;;;;14.45;92.08;99877.16;106525;1285;71896;-72
2022/10/23 11:45:34;;;;;;;8.60;3.00;;;;;;;14.70;90.70;99877.06;106649;1275;68582;-71
2022/10/23 11:48:36;;;;;;;8.90;3.10;;;;;;;14.90;89.56;99875.48;106631;1282;72400;-72
2022/10/23 11:51:38;;;;;;;8.10;3.00;;;;;;;15.02;88.02;99867.98;106413;1285;60389;-71
2022/10/23 11:54:26;;;;;;;8.20;2.90;;;;;;;15.59;87.10;99866.73;106631;1282;58698;-74
2022/10/23 11:57:16;;;;;;;7.00;2.40;;;;;;;16.54;84.50;99854.89;106662;1282;73768;-72
2022/10/23 12:00:17;;;;;;;8.40;3.10;;;;;;;16.78;81.56;99855.86;106534;1275;67773;-73
2022/10/23 12:03:13;;;;;;;9.40;2.80;;;;;;;16.93;80.05;99853.23;106396;1289;73622;-72
2022/10/23 12:06:04;;;;;;;11.50;2.70;;;;;;;17.30;79.18;99847.40;106413;1285;58862;-73
2022/10/23 12:08:58;;;;;;;8.50;2.60;;;;;;;17.34;78.28;99847.53;106424;1285;60132;-72
2022/10/23 12:11:50;;;;;;;7.90;2.40;;;;;;;17.52;76.45;99851.13;106361;1285;72289;-73
2022/10/23 12:14:44;;;;;;;7.90;2.40;;;;;;;18.09;73.12;99843.91;106484;1283;68725;-74
2022/10/23 12:17:36;;;;;;;7.40;2.40;;;;;;;18.22;71.65;99844.22;106422;1290;73473;-73
2022/10/23 12:20:35;;;;;;;10.20;2.20;;;;;;;18.08;71.09;99842.05;106623;1282;57742;-73
2022/10/23 12:24:08;;;;;;;9.10;2.70;;;;;;;17.85;70.39;99846.90;106654;1282;60290;-73
2022/10/23 12:27:13;;;;;;;16.10;5.50;;;;;;;17.56;71.85;99851.97;106523;1285;73611;-72
2022/10/23 12:30:16;;;;;;;11.70;3.60;;;;;;;17.21;72.23;99852.72;106539;1286;69068;-72
2022/10/23 12:33:17;;;;;;;8.90;2.90;;;;;;;17.18;73.29;99853.92;106620;1279;72711;-72
2022/10/23 12:36:37;;;;;;;16.80;5.20;;;;;;;16.96;74.14;99851.58;106654;1275;58249;-72
2022/10/23 12:39:24;;;;;;;11.40;3.30;;;;;;;16.84;74.58;99850.27;106617;1282;61226;-75
2022/10/23 12:42:22;;;;;;;14.10;3.80;;;;;;;16.86;73.88;99844.48;106632;1282;71502;-73
2022/10/23 12:45:37;;;;;;;9.10;3.30;;;;;;;16.87;73.32;99844.69;106407;1282;68606;-75
2022/10/23 12:48:24;;;;;;;9.50;2.70;;;;;;;16.86;72.45;99844.25;106631;1283;72470;-75
2022/10/23 12:51:35;;;;;;;8.10;2.70;;;;;;;16.83;73.00;99847.41;106560;1275;58825;-75
2022/10/23 12:54:21;;;;;;;10.20;4.10;;;;;;;16.76;73.15;99843.33;106541;1283;58795;-75
2022/10/23 12:57:29;;;;;;;9.30;3.20;;;;;;;16.79;73.44;99845.17;106576;1282;72857;-75
2022/10/23 13:00:21;;;;;;;10.40;3.20;;;;;;;16.77;72.96;99848.80;106533;1278;68136;-75
2022/10/23 13:03:12;;;;;;;10.50;3.20;;;;;;;16.60;73.60;99845.54;106395;1285;71614;-76
2022/10/23 13:06:02;;;;;;;9.90;2.90;;;;;;;16.47;74.50;99843.72;106550;1282;58198;-76
2022/10/23 13:08:49;;;;;;;10.70;3.20;;;;;;;16.27;75.16;99847.30;106622;1282;60465;-76
2022/10/23 13:11:50;;;;;;;10.10;3.40;;;;;;;15.92;75.43;99853.64;106556;1283;73823;-76
2022/10/23 13:14:41;;;;;;;8.80;3.10;;;;;;;15.66;75.85;99860.47;106488;1289;67718;-74
2022/10/23 13:17:45;;;;;;;9.70;3.10;;;;;;;15.50;75.93;99862.15;106495;1281;73791;-75
2022/10/23 13:20:40;;;;;;;9.80;3.20;;;;;;;15.29;76.78;99860.16;106621;1274;59377;-74
2022/10/23 13:23:30;;;;;;;10.20;3.50;;;;;;;15.09;77.93;99861.82;106424;1285;57788;-74